Main page
METAR-TAF:

METAR-TAF

Airports :

Limon Municipal Airport

Limon, Colorado, United States

latitude: 39-16-24N, longitude: 103-40-00W, elevation: 5363 ft

Current weather observation

The report was made 21 minutes ago, at 13:55 UTC
Wind 3 mph from the North
Temperature 25°F
Humidity 68%
Pressure 29.97 in. Hg
Visibility: 10 miles
Clear sky

METAR: KLIC 291355Z AUTO 36003KT 10SM CLR M04/M09 A2997 RMK AO2 SLP169 T10441094

Time: 07:16 (14:16 UTC)


TAF: missing

Weather observations and forecasts of more than 4000 airports (METAR and TAF reports).

The available stations are represented by yellow and red dots on the map.

Hover mouse over dot to see the name of the station.

Then click to see weather observations and forecasts.

To change the map : click on the green buttons with a black cross to zoom in, on the green button with a dash to zoom out, or on the green arrows for adjacent maps.


METAR-TAF: